Hlavní strana
METAR-TAF:

METAR-TAF

Letiště :

Bukurešť, Rumunsko

Letiště Bukurešť Henriho Coandy

zeměpisná šířka: 44-33N, zeměpisná délka: 026-06E, výška: 95 m

Aktuální stav počasí

Zpráva byla vytvořena před 30 minutami, v 14:00 UTC
Západojihozápadní vítr 13 kt
Teplota 28°C
Vlhkost vzduchu 28%
Tlak 1012 hPa
Viditelnost 10 km a více
Žádná oblačnost pod 1500 m, nevyskytují se cumulonimby.

METAR: LROP 221400Z 24013KT CAVOK 28/08 Q1012 NOSIG

Čas: 17:30 (14:30 UTC)

Předpověď počasí

Zpráva byla vytvořena před 3 hodinami a 30 minutami, v 11:00 UTC
Předpověď platná od 22 v 12 UTC do 23 v 12 UTC
Jihozápadní vítr 6 kt
Viditelnost 10 km a více
Žádná oblačnost pod 1500 m, nevyskytují se cumulonimby.
Změna
od 22 v 22 UTC do 22 v 24 UTC
Východní vítr 10 kt
Změna
od 23 v 06 UTC do 23 v 08 UTC
vítr z různých směrů 4 kt

TAF: LROP 221100Z 2212/2312 22006KT CAVOK BECMG 2222/2224 08010KT BECMG 2306/2308 VRB04KT

Stav a předpovědi počasí z více než 4 000 letišť (zprávy METAR a TAF).

Červené a žluté tečky na mapě představují dostupné meteorologické stanice.

Když kurzor umístíte na tečku, zobrazí se název stanice.

Pak kliknutím zobrazíte stav a předpověď počasí.

Chcete-li změnit mapu, kliknutím na zelené tlačítko se znaménkem +mapu přiblížíte, kliknutím na zelené tlačítko se znaménkem – mapu oddálíte a kliknutím na zelené šipky přejdete na sousední mapy.


METAR-TAF: